sensor_id;sensor_type;location;lat;lon;timestamp;pressure;altitude;pressure_sealevel;temperature;humidity
55660;BME280;41534;53.550;9.964;2024-03-23T00:56:03;100511.91;;;21.65;45.98
55660;BME280;41534;53.550;9.964;2024-03-23T00:59:03;100499.31;;;21.64;45.93
55660;BME280;41534;53.550;9.964;2024-03-23T01:02:03;100511.50;;;21.61;45.93
55660;BME280;41534;53.550;9.964;2024-03-23T01:05:04;100503.53;;;21.60;46.28
55660;BME280;41534;53.550;9.964;2024-03-23T01:08:05;100492.63;;;21.60;46.30
55660;BME280;41534;53.550;9.964;2024-03-23T01:11:05;100497.44;;;21.58;46.35
55660;BME280;41534;53.550;9.964;2024-03-23T01:14:05;100493.03;;;21.57;46.54
55660;BME280;41534;53.550;9.964;2024-03-23T01:17:06;100491.97;;;21.51;45.95
55660;BME280;41534;53.550;9.964;2024-03-23T01:20:06;100497.63;;;21.50;45.95
55660;BME280;41534;53.550;9.964;2024-03-23T01:23:07;100479.78;;;21.47;45.74
55660;BME280;41534;53.550;9.964;2024-03-23T01:26:07;100469.31;;;21.44;45.76
55660;BME280;41534;53.550;9.964;2024-03-23T01:29:07;100478.97;;;21.40;45.63
55660;BME280;41534;53.550;9.964;2024-03-23T01:32:07;100479.16;;;21.39;45.75
55660;BME280;41534;53.550;9.964;2024-03-23T01:35:08;100477.69;;;21.36;45.61
55660;BME280;41534;53.550;9.964;2024-03-23T01:38:08;100471.59;;;21.34;45.71
55660;BME280;41534;53.550;9.964;2024-03-23T01:41:09;100459.84;;;21.33;45.62
55660;BME280;41534;53.550;9.964;2024-03-23T01:44:09;100450.19;;;21.31;45.62
55660;BME280;41534;53.550;9.964;2024-03-23T01:47:09;100457.75;;;21.29;45.86
55660;BME280;41534;53.550;9.964;2024-03-23T01:50:10;100453.34;;;21.28;45.90
55660;BME280;41534;53.550;9.964;2024-03-23T01:53:10;100450.63;;;21.28;46.08
55660;BME280;41534;53.550;9.964;2024-03-23T01:56:10;100440.75;;;21.27;46.13
55660;BME280;41534;53.550;9.964;2024-03-23T01:59:11;100436.38;;;21.26;46.05
55660;BME280;41534;53.550;9.964;2024-03-23T02:02:11;100428.41;;;21.24;46.34
55660;BME280;41534;53.550;9.964;2024-03-23T02:05:12;100422.94;;;21.24;46.20
55660;BME280;41534;53.550;9.964;2024-03-23T02:08:12;100431.31;;;21.23;46.20
55660;BME280;41534;53.550;9.964;2024-03-23T02:11:13;100425.22;;;21.21;46.13
55660;BME280;41534;53.550;9.964;2024-03-23T02:14:13;100420.81;;;21.20;46.28
55660;BME280;41534;53.550;9.964;2024-03-23T02:17:13;100414.53;;;21.19;46.25
55660;BME280;41534;53.550;9.964;2024-03-23T02:20:14;100408.41;;;21.17;46.17
55660;BME280;41534;53.550;9.964;2024-03-23T02:23:15;100403.84;;;21.18;46.22
55660;BME280;41534;53.550;9.964;2024-03-23T02:26:15;100399.63;;;21.15;45.97
55660;BME280;41534;53.550;9.964;2024-03-23T02:29:16;100396.25;;;21.13;46.14
55660;BME280;41534;53.550;9.964;2024-03-23T02:32:16;100385.56;;;21.12;46.11
55660;BME280;41534;53.550;9.964;2024-03-23T02:35:16;100388.50;;;21.10;46.27
55660;BME280;41534;53.550;9.964;2024-03-23T02:38:17;100389.56;;;21.09;46.02
55660;BME280;41534;53.550;9.964;2024-03-23T02:41:17;100388.94;;;21.07;46.25
55660;BME280;41534;53.550;9.964;2024-03-23T02:44:17;100391.03;;;21.05;46.03
55660;BME280;41534;53.550;9.964;2024-03-23T02:47:17;100385.78;;;21.03;46.06
55660;BME280;41534;53.550;9.964;2024-03-23T02:50:19;100388.94;;;21.00;46.14
55660;BME280;41534;53.550;9.964;2024-03-23T02:53:19;100377.16;;;21.00;46.14
55660;BME280;41534;53.550;9.964;2024-03-23T02:56:19;100390.16;;;20.98;46.09
55660;BME280;41534;53.550;9.964;2024-03-23T02:59:19;100377.56;;;20.97;46.01
55660;BME280;41534;53.550;9.964;2024-03-23T03:02:20;100374.84;;;20.97;46.06
55660;BME280;41534;53.550;9.964;2024-03-23T03:05:21;100368.78;;;20.95;46.07
55660;BME280;41534;53.550;9.964;2024-03-23T03:08:21;100361.03;;;20.92;46.02
55660;BME280;41534;53.550;9.964;2024-03-23T03:11:21;100355.78;;;20.90;45.70
55660;BME280;41534;53.550;9.964;2024-03-23T03:14:21;100354.94;;;20.90;45.67
55660;BME280;41534;53.550;9.964;2024-03-23T03:17:22;100339.03;;;20.87;45.66
55660;BME280;41534;53.550;9.964;2024-03-23T03:20:22;100350.13;;;20.85;45.72
55660;BME280;41534;53.550;9.964;2024-03-23T03:23:22;100353.06;;;20.84;45.88
55660;BME280;41534;53.550;9.964;2024-03-23T03:26:23;100347.78;;;20.82;45.60
55660;BME280;41534;53.550;9.964;2024-03-23T03:29:23;100337.09;;;20.81;45.61
55660;BME280;41534;53.550;9.964;2024-03-23T03:32:24;100340.03;;;20.79;45.59
55660;BME280;41534;53.550;9.964;2024-03-23T03:35:24;100331.25;;;20.77;45.78
55660;BME280;41534;53.550;9.964;2024-03-23T03:38:24;100328.94;;;20.74;45.20
55660;BME280;41534;53.550;9.964;2024-03-23T03:41:25;100324.94;;;20.70;44.65
55660;BME280;41534;53.550;9.964;2024-03-23T03:44:25;100319.09;;;20.66;44.41
55660;BME280;41534;53.550;9.964;2024-03-23T03:47:25;100315.06;;;20.62;43.99
55660;BME280;41534;53.550;9.964;2024-03-23T03:50:26;100306.28;;;20.60;44.08
55660;BME280;41534;53.550;9.964;2024-03-23T03:53:26;100312.13;;;20.57;43.97
55660;BME280;41534;53.550;9.964;2024-03-23T03:56:26;100305.44;;;20.53;43.69
55660;BME280;41534;53.550;9.964;2024-03-23T03:59:26;100295.78;;;20.51;43.59
55660;BME280;41534;53.550;9.964;2024-03-23T04:02:27;100297.06;;;20.48;43.63
55660;BME280;41534;53.550;9.964;2024-03-23T04:05:27;100298.28;;;20.45;43.49
55660;BME280;41534;53.550;9.964;2024-03-23T04:08:27;100297.66;;;20.43;43.36
55660;BME280;41534;53.550;9.964;2024-03-23T04:11:28;100295.31;;;20.40;43.37
55660;BME280;41534;53.550;9.964;2024-03-23T04:14:28;100294.66;;;20.38;43.32
55660;BME280;41534;53.550;9.964;2024-03-23T04:17:28;100286.72;;;20.37;43.09
55660;BME280;41534;53.550;9.964;2024-03-23T04:23:29;100282.72;;;20.33;42.92
55660;BME280;41534;53.550;9.964;2024-03-23T04:26:29;100272.22;;;20.30;43.02
55660;BME280;41534;53.550;9.964;2024-03-23T04:29:29;100261.56;;;20.28;42.79
55660;BME280;41534;53.550;9.964;2024-03-23T04:32:29;100262.59;;;20.27;42.72
55660;BME280;41534;53.550;9.964;2024-03-23T04:35:30;100277.47;;;20.25;42.68
55660;BME280;41534;53.550;9.964;2024-03-23T04:38:30;100284.16;;;20.22;42.77
55660;BME280;41534;53.550;9.964;2024-03-23T04:41:31;100300.69;;;20.21;42.65
55660;BME280;41534;53.550;9.964;2024-03-23T04:44:31;100301.09;;;20.17;42.54
55660;BME280;41534;53.550;9.964;2024-03-23T04:47:31;100301.09;;;20.17;42.49
55660;BME280;41534;53.550;9.964;2024-03-23T04:50:32;100298.78;;;20.14;42.24
55660;BME280;41534;53.550;9.964;2024-03-23T04:53:32;100304.41;;;20.13;42.48
55660;BME280;41534;53.550;9.964;2024-03-23T04:56:32;100293.72;;;20.11;42.30
55660;BME280;41534;53.550;9.964;2024-03-23T04:59:32;100277.81;;;20.08;42.32
55660;BME280;41534;53.550;9.964;2024-03-23T05:02:33;100261.69;;;20.07;42.33
55660;BME280;41534;53.550;9.964;2024-03-23T05:05:33;100266.31;;;20.06;42.08
55660;BME280;41534;53.550;9.964;2024-03-23T05:08:33;100269.22;;;20.05;42.08
55660;BME280;41534;53.550;9.964;2024-03-23T05:11:33;100269.63;;;20.02;42.05
55660;BME280;41534;53.550;9.964;2024-03-23T05:14:34;100262.53;;;20.01;42.12
55660;BME280;41534;53.550;9.964;2024-03-23T05:17:34;100270.03;;;19.99;42.14
55660;BME280;41534;53.550;9.964;2024-03-23T05:20:34;100266.69;;;19.97;42.13
55660;BME280;41534;53.550;9.964;2024-03-23T05:23:35;100257.69;;;19.96;42.07
55660;BME280;41534;53.550;9.964;2024-03-23T05:26:35;100261.44;;;19.95;42.00
55660;BME280;41534;53.550;9.964;2024-03-23T05:29:35;100263.50;;;19.93;41.97
55660;BME280;41534;53.550;9.964;2024-03-23T05:32:36;100263.72;;;19.92;41.83
55660;BME280;41534;53.550;9.964;2024-03-23T05:35:36;100266.66;;;19.90;41.73
55660;BME280;41534;53.550;9.964;2024-03-23T05:38:37;100253.25;;;19.88;41.75
55660;BME280;41534;53.550;9.964;2024-03-23T05:41:38;100256.19;;;19.87;41.80
55660;BME280;41534;53.550;9.964;2024-03-23T05:44:38;100249.91;;;19.86;41.73
55660;BME280;41534;53.550;9.964;2024-03-23T05:47:38;100245.50;;;19.85;41.78
55660;BME280;41534;53.550;9.964;2024-03-23T05:50:38;100223.13;;;19.83;41.77
55660;BME280;41534;53.550;9.964;2024-03-23T05:53:39;100229.59;;;19.82;41.56
55660;BME280;41534;53.550;9.964;2024-03-23T05:56:39;100227.09;;;19.81;41.61
55660;BME280;41534;53.550;9.964;2024-03-23T05:59:39;100226.03;;;19.82;41.58
55660;BME280;41534;53.550;9.964;2024-03-23T06:02:39;100231.88;;;19.79;41.48
55660;BME280;41534;53.550;9.964;2024-03-23T06:05:40;100227.47;;;19.78;41.43
55660;BME280;41534;53.550;9.964;2024-03-23T06:08:40;100233.94;;;19.77;41.50
55660;BME280;41534;53.550;9.964;2024-03-23T06:11:40;100227.88;;;19.75;41.50
55660;BME280;41534;53.550;9.964;2024-03-23T06:14:41;100229.75;;;19.74;41.38
55660;BME280;41534;53.550;9.964;2024-03-23T06:17:41;100227.88;;;19.75;41.44
55660;BME280;41534;53.550;9.964;2024-03-23T06:20:41;100237.28;;;19.72;41.45
55660;BME280;41534;53.550;9.964;2024-03-23T06:23:42;100231.00;;;19.72;41.30
55660;BME280;41534;53.550;9.964;2024-03-23T06:26:42;100227.44;;;19.71;41.18
55660;BME280;41534;53.550;9.964;2024-03-23T06:29:42;100225.78;;;19.70;41.38
55660;BME280;41534;53.550;9.964;2024-03-23T06:32:43;100222.22;;;19.70;41.45
55660;BME280;41534;53.550;9.964;2024-03-23T06:35:50;100227.66;;;19.70;41.25
55660;BME280;41534;53.550;9.964;2024-03-23T06:38:50;100228.69;;;19.69;41.33
55660;BME280;41534;53.550;9.964;2024-03-23T06:41:54;100228.91;;;19.67;41.20
55660;BME280;41534;53.550;9.964;2024-03-23T06:44:54;100218.22;;;19.66;41.31
55660;BME280;41534;53.550;9.964;2024-03-23T06:47:54;100224.50;;;19.66;41.18
55660;BME280;41534;53.550;9.964;2024-03-23T06:50:58;100219.06;;;19.66;41.17
55660;BME280;41534;53.550;9.964;2024-03-23T06:53:58;100221.78;;;19.66;41.25
55660;BME280;41534;53.550;9.964;2024-03-23T06:56:59;100213.84;;;19.65;41.13
55660;BME280;41534;53.550;9.964;2024-03-23T06:59:59;100213.84;;;19.65;41.21
55660;BME280;41534;53.550;9.964;2024-03-23T07:03:00;100211.31;;;19.63;41.14
55660;BME280;41534;53.550;9.964;2024-03-23T07:06:00;100217.81;;;19.62;41.23
55660;BME280;41534;53.550;9.964;2024-03-23T07:09:00;100208.97;;;19.60;41.15
55660;BME280;41534;53.550;9.964;2024-03-23T07:12:01;100212.53;;;19.61;41.14
55660;BME280;41534;53.550;9.964;2024-03-23T07:15:01;100208.97;;;19.60;41.07
55660;BME280;41534;53.550;9.964;2024-03-23T07:18:01;100215.09;;;19.62;41.16
55660;BME280;41534;53.550;9.964;2024-03-23T07:21:02;100223.22;;;19.62;41.05
55660;BME280;41534;53.550;9.964;2024-03-23T07:24:02;100215.09;;;19.62;41.12
55660;BME280;41534;53.550;9.964;2024-03-23T07:27:02;100218.44;;;19.64;41.28
55660;BME280;41534;53.550;9.964;2024-03-23T07:30:03;100220.94;;;19.66;41.29
55660;BME280;41534;53.550;9.964;2024-03-23T07:33:04;100217.19;;;19.67;41.72
55660;BME280;41534;53.550;9.964;2024-03-23T07:36:04;100212.38;;;19.69;41.67
55660;BME280;41534;53.550;9.964;2024-03-23T07:39:04;100218.66;;;19.69;41.95
55660;BME280;41534;53.550;9.964;2024-03-23T07:42:05;100208.63;;;19.70;41.86
55660;BME280;41534;53.550;9.964;2024-03-23T07:45:06;100221.16;;;19.71;41.84
55660;BME280;41534;53.550;9.964;2024-03-23T07:48:06;100216.38;;;19.73;41.87
55660;BME280;41534;53.550;9.964;2024-03-23T07:51:16;100215.97;;;19.76;41.92
55660;BME280;41534;53.550;9.964;2024-03-23T07:54:17;100207.41;;;19.79;41.94
55660;BME280;41534;53.550;9.964;2024-03-23T07:57:17;100209.94;;;19.80;41.94
55660;BME280;41534;53.550;9.964;2024-03-23T08:00:18;100207.84;;;19.82;41.98
55660;BME280;41534;53.550;9.964;2024-03-23T08:03:18;100203.88;;;19.85;41.99
55660;BME280;41534;53.550;9.964;2024-03-23T08:06:19;100202.63;;;19.87;41.76
55660;BME280;41534;53.550;9.964;2024-03-23T08:09:20;100199.72;;;19.89;41.91
55660;BME280;41534;53.550;9.964;2024-03-23T08:12:20;100195.94;;;19.90;41.88
55660;BME280;41534;53.550;9.964;2024-03-23T08:15:20;100202.00;;;19.92;41.84
55660;BME280;41534;53.550;9.964;2024-03-23T08:18:20;100185.28;;;19.95;41.96
55660;BME280;41534;53.550;9.964;2024-03-23T08:21:21;100193.28;;;19.97;41.78
55660;BME280;41534;53.550;9.964;2024-03-23T08:24:21;100185.53;;;20.00;41.80
55660;BME280;41534;53.550;9.964;2024-03-23T08:27:21;100185.13;;;20.03;41.78
55660;BME280;41534;53.550;9.964;2024-03-23T08:30:22;100184.69;;;20.06;41.72
55660;BME280;41534;53.550;9.964;2024-03-23T08:33:23;100182.59;;;20.08;41.56
55660;BME280;41534;53.550;9.964;2024-03-23T08:36:23;100183.25;;;20.10;41.71
55660;BME280;41534;53.550;9.964;2024-03-23T08:39:23;100180.31;;;20.12;41.61
55660;BME280;41534;53.550;9.964;2024-03-23T08:42:24;100179.25;;;20.13;41.68
55660;BME280;41534;53.550;9.964;2024-03-23T08:45:25;100180.13;;;20.13;41.71
55660;BME280;41534;53.550;9.964;2024-03-23T08:48:25;100171.75;;;20.15;41.60
55660;BME280;41534;53.550;9.964;2024-03-23T08:51:25;100168.22;;;20.14;41.64
55660;BME280;41534;53.550;9.964;2024-03-23T08:54:25;100170.94;;;20.14;41.63
55660;BME280;41534;53.550;9.964;2024-03-23T08:57:26;100173.00;;;20.12;41.46
55660;BME280;41534;53.550;9.964;2024-03-23T09:00:26;100164.81;;;20.12;41.61
55660;BME280;41534;53.550;9.964;2024-03-23T09:03:26;100169.25;;;20.13;41.24
55660;BME280;41534;53.550;9.964;2024-03-23T09:06:27;100158.53;;;20.12;41.30
55660;BME280;41534;53.550;9.964;2024-03-23T09:09:27;100160.03;;;20.14;41.35
55660;BME280;41534;53.550;9.964;2024-03-23T09:12:27;100157.13;;;20.16;41.43
55660;BME280;41534;53.550;9.964;2024-03-23T09:15:27;100155.88;;;20.18;41.38
55660;BME280;41534;53.550;9.964;2024-03-23T09:18:30;100150.63;;;20.24;41.30
55660;BME280;41534;53.550;9.964;2024-03-23T09:21:31;100157.75;;;20.25;41.23
55660;BME280;41534;53.550;9.964;2024-03-23T09:24:31;100152.50;;;20.23;41.13
55660;BME280;41534;53.550;9.964;2024-03-23T09:27:31;100159.41;;;20.19;41.17
55660;BME280;41534;53.550;9.964;2024-03-23T09:30:32;100157.13;;;20.16;41.28
55660;BME280;41534;53.550;9.964;2024-03-23T09:33:34;100157.50;;;20.13;41.08
55660;BME280;41534;53.550;9.964;2024-03-23T09:36:34;100157.91;;;20.10;41.08
55660;BME280;41534;53.550;9.964;2024-03-23T09:39:34;100157.28;;;20.08;41.04
55660;BME280;41534;53.550;9.964;2024-03-23T09:42:35;100151.22;;;20.06;40.95
55660;BME280;41534;53.550;9.964;2024-03-23T09:45:39;100152.06;;;20.06;40.83
55660;BME280;41534;53.550;9.964;2024-03-23T09:48:41;100150.81;;;20.09;41.23
55660;BME280;41534;53.550;9.964;2024-03-23T09:51:43;100147.50;;;20.13;41.02
55660;BME280;41534;53.550;9.964;2024-03-23T09:54:43;100146.66;;;20.20;41.13
55660;BME280;41534;53.550;9.964;2024-03-23T09:57:43;100147.06;;;20.30;41.27
55660;BME280;41534;53.550;9.964;2024-03-23T10:00:44;100141.25;;;20.46;41.52
55660;BME280;41534;53.550;9.964;2024-03-23T10:03:45;100132.25;;;20.59;41.69
55660;BME280;41534;53.550;9.964;2024-03-23T10:06:45;100126.59;;;20.73;41.74
55660;BME280;41534;53.550;9.964;2024-03-23T10:09:46;100132.66;;;20.89;41.94
55660;BME280;41534;53.550;9.964;2024-03-23T10:12:47;100124.03;;;21.05;42.02
55660;BME280;41534;53.550;9.964;2024-03-23T10:15:54;100120.25;;;21.19;42.15
55660;BME280;41534;53.550;9.964;2024-03-23T10:18:55;100112.88;;;21.33;42.30
55660;BME280;41534;53.550;9.964;2024-03-23T10:21:55;100109.03;;;21.47;42.19
55660;BME280;41534;53.550;9.964;2024-03-23T10:25:07;100100.81;;;21.60;42.49
55660;BME280;41534;53.550;9.964;2024-03-23T10:28:08;100098.66;;;21.69;42.42
55660;BME280;41534;53.550;9.964;2024-03-23T10:31:11;100112.06;;;21.77;42.36
55660;BME280;41534;53.550;9.964;2024-03-23T10:34:12;100107.00;;;21.81;42.50
55660;BME280;41534;53.550;9.964;2024-03-23T10:37:12;100109.72;;;21.81;42.50
55660;BME280;41534;53.550;9.964;2024-03-23T10:40:13;100118.97;;;21.80;42.51
55660;BME280;41534;53.550;9.964;2024-03-23T10:43:13;100108.28;;;21.78;42.59
55660;BME280;41534;53.550;9.964;2024-03-23T10:46:14;100113.34;;;21.75;42.72
55660;BME280;41534;53.550;9.964;2024-03-23T10:49:14;100107.03;;;21.74;42.71
55660;BME280;41534;53.550;9.964;2024-03-23T10:52:14;100110.00;;;21.73;42.76
55660;BME280;41534;53.550;9.964;2024-03-23T10:55:16;100104.97;;;21.70;42.58
55660;BME280;41534;53.550;9.964;2024-03-23T10:58:22;100102.66;;;21.66;42.42
55660;BME280;41534;53.550;9.964;2024-03-23T11:01:23;100103.94;;;21.64;42.62
55660;BME280;41534;53.550;9.964;2024-03-23T11:04:34;100094.91;;;21.63;42.68
55660;BME280;41534;53.550;9.964;2024-03-23T11:07:34;100093.00;;;21.71;42.81
55660;BME280;41534;53.550;9.964;2024-03-23T11:10:35;100094.19;;;21.81;42.90
55660;BME280;41534;53.550;9.964;2024-03-23T11:13:35;100087.22;;;21.92;42.65
55660;BME280;41534;53.550;9.964;2024-03-23T11:16:35;100088.00;;;21.99;42.71
55660;BME280;41534;53.550;9.964;2024-03-23T11:19:38;100082.94;;;22.03;42.82
55660;BME280;41534;53.550;9.964;2024-03-23T11:25:40;100092.63;;;22.05;42.56
55660;BME280;41534;53.550;9.964;2024-03-23T11:28:40;100086.34;;;22.05;42.74
55660;BME280;41534;53.550;9.964;2024-03-23T11:34:47;100084.81;;;22.02;42.50
55660;BME280;41534;53.550;9.964;2024-03-23T11:38:02;100078.16;;;22.05;42.30
55660;BME280;41534;53.550;9.964;2024-03-23T11:41:03;100080.88;;;22.05;42.82
55660;BME280;41534;53.550;9.964;2024-03-23T11:44:22;100076.88;;;22.07;42.44
55660;BME280;41534;53.550;9.964;2024-03-23T11:47:22;100072.63;;;22.11;42.38
55660;BME280;41534;53.550;9.964;2024-03-23T11:50:22;100070.91;;;22.17;42.60
55660;BME280;41534;53.550;9.964;2024-03-23T11:53:24;100067.31;;;22.23;42.55
55660;BME280;41534;53.550;9.964;2024-03-23T11:56:25;100069.34;;;22.27;42.50
55660;BME280;41534;53.550;9.964;2024-03-23T12:02:32;100084.59;;;22.35;42.56
55660;BME280;41534;53.550;9.964;2024-03-23T12:05:33;100109.19;;;22.35;42.40
55660;BME280;41534;53.550;9.964;2024-03-23T12:08:34;100125.41;;;22.30;42.67
55660;BME280;41534;53.550;9.964;2024-03-23T12:11:35;100105.06;;;22.26;42.50
55660;BME280;41534;53.550;9.964;2024-03-23T12:14:35;100096.25;;;22.24;42.79
55660;BME280;41534;53.550;9.964;2024-03-23T12:17:35;100093.75;;;22.22;42.79
55660;BME280;41534;53.550;9.964;2024-03-23T12:20:37;100084.94;;;22.20;42.54
55660;BME280;41534;53.550;9.964;2024-03-23T12:23:41;100082.03;;;22.15;42.38
55660;BME280;41534;53.550;9.964;2024-03-23T12:26:41;100081.66;;;22.12;42.19
55660;BME280;41534;53.550;9.964;2024-03-23T12:29:42;100089.66;;;22.07;42.42
55660;BME280;41534;53.550;9.964;2024-03-23T12:32:42;100088.38;;;22.03;42.31
55660;BME280;41534;53.550;9.964;2024-03-23T12:35:42;100106.25;;;21.98;42.28
55660;BME280;41534;53.550;9.964;2024-03-23T12:38:42;100144.06;;;21.95;42.27
55660;BME280;41534;53.550;9.964;2024-03-23T12:41:43;100138.22;;;21.91;42.23
55660;BME280;41534;53.550;9.964;2024-03-23T12:44:43;100130.47;;;21.88;42.25
55660;BME280;41534;53.550;9.964;2024-03-23T12:47:43;100119.97;;;21.85;42.50
55660;BME280;41534;53.550;9.964;2024-03-23T12:50:43;100121.03;;;21.84;42.18
55660;BME280;41534;53.550;9.964;2024-03-23T12:53:44;100121.84;;;21.85;42.31
55660;BME280;41534;53.550;9.964;2024-03-23T12:56:45;100118.91;;;21.86;42.30
55660;BME280;41534;53.550;9.964;2024-03-23T12:59:45;100126.69;;;21.89;42.08
55660;BME280;41534;53.550;9.964;2024-03-23T13:02:46;100113.22;;;21.94;42.15
55660;BME280;41534;53.550;9.964;2024-03-23T13:05:51;100126.19;;;21.99;42.01
55660;BME280;41534;53.550;9.964;2024-03-23T13:08:52;100123.03;;;22.02;42.09
55660;BME280;41534;53.550;9.964;2024-03-23T13:11:52;100129.13;;;22.04;41.85
55660;BME280;41534;53.550;9.964;2024-03-23T13:14:52;100130.00;;;22.05;41.82
55660;BME280;41534;53.550;9.964;2024-03-23T13:17:52;100129.75;;;22.06;42.09
55660;BME280;41534;53.550;9.964;2024-03-23T13:20:53;100118.19;;;22.11;42.24
55660;BME280;41534;53.550;9.964;2024-03-23T13:23:53;100124.25;;;22.13;42.09
55660;BME280;41534;53.550;9.964;2024-03-23T13:26:54;100129.50;;;22.14;42.39
55660;BME280;41534;53.550;9.964;2024-03-23T13:29:55;100117.75;;;22.14;42.81
55660;BME280;41534;53.550;9.964;2024-03-23T13:32:55;100125.94;;;22.14;42.70
55660;BME280;41534;53.550;9.964;2024-03-23T13:35:55;100124.88;;;22.15;42.57
55660;BME280;41534;53.550;9.964;2024-03-23T13:38:56;100114.56;;;22.17;42.45
55660;BME280;41534;53.550;9.964;2024-03-23T13:41:56;100117.91;;;22.19;42.27
55660;BME280;41534;53.550;9.964;2024-03-23T13:44:56;100116.84;;;22.20;42.36
55660;BME280;41534;53.550;9.964;2024-03-23T13:47:57;100115.16;;;22.19;42.25
55660;BME280;41534;53.550;9.964;2024-03-23T13:51:03;100120.63;;;22.19;42.09
55660;BME280;41534;53.550;9.964;2024-03-23T13:54:04;100124.41;;;22.18;41.95
55660;BME280;41534;53.550;9.964;2024-03-23T13:57:04;100131.78;;;22.17;42.04
55660;BME280;41534;53.550;9.964;2024-03-23T14:00:07;100115.63;;;22.16;41.98
55660;BME280;41534;53.550;9.964;2024-03-23T14:03:08;100128.22;;;22.17;41.97
55660;BME280;41534;53.550;9.964;2024-03-23T14:06:09;100128.22;;;22.17;41.82
55660;BME280;41534;53.550;9.964;2024-03-23T14:09:10;100128.22;;;22.17;42.04
55660;BME280;41534;53.550;9.964;2024-03-23T14:12:10;100122.75;;;22.17;41.84
55660;BME280;41534;53.550;9.964;2024-03-23T14:15:10;100126.53;;;22.16;42.03
55660;BME280;41534;53.550;9.964;2024-03-23T14:18:11;100125.94;;;22.14;41.72
55660;BME280;41534;53.550;9.964;2024-03-23T14:21:11;100136.22;;;22.12;42.01
55660;BME280;41534;53.550;9.964;2024-03-23T14:24:11;100136.66;;;22.09;42.32
55660;BME280;41534;53.550;9.964;2024-03-23T14:27:11;100130.59;;;22.07;42.44
55660;BME280;41534;53.550;9.964;2024-03-23T14:30:12;100136.28;;;22.05;42.66
55660;BME280;41534;53.550;9.964;2024-03-23T14:33:12;100125.38;;;22.05;42.67
55660;BME280;41534;53.550;9.964;2024-03-23T14:36:13;100125.53;;;22.04;42.36
55660;BME280;41534;53.550;9.964;2024-03-23T14:39:14;100122.19;;;22.02;43.09
55660;BME280;41534;53.550;9.964;2024-03-23T14:42:14;100120.50;;;22.01;42.46
55660;BME280;41534;53.550;9.964;2024-03-23T14:45:14;100117.78;;;22.01;42.52
55660;BME280;41534;53.550;9.964;2024-03-23T14:48:15;100114.84;;;22.02;42.58
55660;BME280;41534;53.550;9.964;2024-03-23T14:51:15;100118.41;;;22.03;42.48
55660;BME280;41534;53.550;9.964;2024-03-23T14:54:15;100128.25;;;22.04;42.24
55660;BME280;41534;53.550;9.964;2024-03-23T14:57:16;100149.09;;;22.05;42.17
55660;BME280;41534;53.550;9.964;2024-03-23T15:00:16;100130.97;;;22.04;42.27
55660;BME280;41534;53.550;9.964;2024-03-23T15:03:16;100136.44;;;22.04;42.44
55660;BME280;41534;53.550;9.964;2024-03-23T15:06:17;100140.03;;;22.04;42.79
55660;BME280;41534;53.550;9.964;2024-03-23T15:09:17;100129.31;;;22.03;42.94
55660;BME280;41534;53.550;9.964;2024-03-23T15:12:17;100134.75;;;22.03;42.94
55660;BME280;41534;53.550;9.964;2024-03-23T15:15:18;100141.28;;;22.02;42.85
55660;BME280;41534;53.550;9.964;2024-03-23T15:18:18;100117.16;;;21.98;42.92
55660;BME280;41534;53.550;9.964;2024-03-23T15:21:18;100117.78;;;22.01;42.92
55660;BME280;41534;53.550;9.964;2024-03-23T15:24:19;100106.44;;;22.04;42.96
55660;BME280;41534;53.550;9.964;2024-03-23T15:27:19;100103.53;;;22.05;42.85
55660;BME280;41534;53.550;9.964;2024-03-23T15:30:19;100110.44;;;22.08;42.99
55660;BME280;41534;53.550;9.964;2024-03-23T15:33:19;100105.59;;;22.10;43.02
55660;BME280;41534;53.550;9.964;2024-03-23T15:36:20;100104.53;;;22.11;42.89
55660;BME280;41534;53.550;9.964;2024-03-23T15:39:20;100099.09;;;22.11;43.12
55660;BME280;41534;53.550;9.964;2024-03-23T15:42:20;100104.53;;;22.11;43.05
55660;BME280;41534;53.550;9.964;2024-03-23T15:45:21;100103.94;;;22.09;43.23
55660;BME280;41534;53.550;9.964;2024-03-23T15:48:21;100106.66;;;22.09;43.09
55660;BME280;41534;53.550;9.964;2024-03-23T15:51:21;100108.78;;;22.07;43.57
55660;BME280;41534;53.550;9.964;2024-03-23T15:54:21;100110.44;;;22.08;43.59
55660;BME280;41534;53.550;9.964;2024-03-23T15:57:22;100107.94;;;22.06;43.30
55660;BME280;41534;53.550;9.964;2024-03-23T16:00:22;100115.28;;;22.06;43.03
55660;BME280;41534;53.550;9.964;2024-03-23T16:03:23;100111.28;;;22.02;43.20
55660;BME280;41534;53.550;9.964;2024-03-23T16:06:23;100113.78;;;22.03;43.39
55660;BME280;41534;53.550;9.964;2024-03-23T16:09:24;100110.03;;;22.04;43.48
55660;BME280;41534;53.550;9.964;2024-03-23T16:12:24;100089.66;;;22.07;43.65
55660;BME280;41534;53.550;9.964;2024-03-23T16:15:24;100107.25;;;22.11;43.62
55660;BME280;41534;53.550;9.964;2024-03-23T16:18:25;100101.38;;;22.14;43.43
55660;BME280;41534;53.550;9.964;2024-03-23T16:21:25;100104.69;;;22.16;43.52
55660;BME280;41534;53.550;9.964;2024-03-23T16:24:25;100111.84;;;22.17;43.12
55660;BME280;41534;53.550;9.964;2024-03-23T16:27:26;100109.94;;;22.17;43.34
55660;BME280;41534;53.550;9.964;2024-03-23T16:30:26;100107.22;;;22.17;43.11
55660;BME280;41534;53.550;9.964;2024-03-23T16:33:27;100111.00;;;22.16;43.45
55660;BME280;41534;53.550;9.964;2024-03-23T16:36:27;100100.09;;;22.16;43.18
55660;BME280;41534;53.550;9.964;2024-03-23T16:39:28;100110.16;;;22.16;43.39
55660;BME280;41534;53.550;9.964;2024-03-23T16:42:28;100104.94;;;22.14;43.18
55660;BME280;41534;53.550;9.964;2024-03-23T16:45:28;100108.09;;;22.11;43.42
55660;BME280;41534;53.550;9.964;2024-03-23T16:48:29;100111.06;;;22.10;43.31
55660;BME280;41534;53.550;9.964;2024-03-23T16:51:30;100105.22;;;22.06;43.17